sensor_id;sensor_type;location;lat;lon;timestamp;temperature;humidity
30047;DHT22;16878;52.542;13.426;2023-03-18T00:00:07;9.70;74.40
30047;DHT22;16878;52.542;13.426;2023-03-18T00:02:38;9.70;74.40
30047;DHT22;16878;52.542;13.426;2023-03-18T00:05:05;9.70;74.50
30047;DHT22;16878;52.542;13.426;2023-03-18T00:07:33;9.70;74.00
30047;DHT22;16878;52.542;13.426;2023-03-18T00:09:58;9.70;73.70
30047;DHT22;16878;52.542;13.426;2023-03-18T00:12:24;9.70;74.20
30047;DHT22;16878;52.542;13.426;2023-03-18T00:14:50;9.70;74.70
30047;DHT22;16878;52.542;13.426;2023-03-18T00:17:16;9.70;74.30
30047;DHT22;16878;52.542;13.426;2023-03-18T00:19:42;9.70;74.50
30047;DHT22;16878;52.542;13.426;2023-03-18T00:22:08;9.70;74.10
30047;DHT22;16878;52.542;13.426;2023-03-18T00:24:37;9.70;74.00
30047;DHT22;16878;52.542;13.426;2023-03-18T00:27:03;9.70;73.60
30047;DHT22;16878;52.542;13.426;2023-03-18T00:29:29;9.70;73.80
30047;DHT22;16878;52.542;13.426;2023-03-18T00:31:57;9.70;73.90
30047;DHT22;16878;52.542;13.426;2023-03-18T00:34:23;9.70;73.80
30047;DHT22;16878;52.542;13.426;2023-03-18T00:36:48;9.60;74.30
30047;DHT22;16878;52.542;13.426;2023-03-18T00:39:24;9.60;74.00
30047;DHT22;16878;52.542;13.426;2023-03-18T00:41:55;9.60;74.20
30047;DHT22;16878;52.542;13.426;2023-03-18T00:44:21;9.50;74.50
30047;DHT22;16878;52.542;13.426;2023-03-18T00:46:47;9.50;74.60
30047;DHT22;16878;52.542;13.426;2023-03-18T00:49:13;9.40;74.50
30047;DHT22;16878;52.542;13.426;2023-03-18T00:51:40;9.40;75.00
30047;DHT22;16878;52.542;13.426;2023-03-18T00:54:11;9.40;75.30
30047;DHT22;16878;52.542;13.426;2023-03-18T00:56:38;9.30;74.70
30047;DHT22;16878;52.542;13.426;2023-03-18T00:59:05;9.30;75.00
30047;DHT22;16878;52.542;13.426;2023-03-18T01:01:31;9.30;75.10
30047;DHT22;16878;52.542;13.426;2023-03-18T01:03:57;9.20;75.40
30047;DHT22;16878;52.542;13.426;2023-03-18T01:06:30;9.20;75.70
30047;DHT22;16878;52.542;13.426;2023-03-18T01:08:57;9.20;75.50
30047;DHT22;16878;52.542;13.426;2023-03-18T01:11:23;9.10;75.60
30047;DHT22;16878;52.542;13.426;2023-03-18T01:13:49;9.10;75.70
30047;DHT22;16878;52.542;13.426;2023-03-18T01:16:15;9.10;75.90
30047;DHT22;16878;52.542;13.426;2023-03-18T01:18:42;9.10;75.90
30047;DHT22;16878;52.542;13.426;2023-03-18T01:21:09;9.10;75.40
30047;DHT22;16878;52.542;13.426;2023-03-18T01:23:37;9.10;75.50
30047;DHT22;16878;52.542;13.426;2023-03-18T01:26:03;9.10;75.30
30047;DHT22;16878;52.542;13.426;2023-03-18T01:28:29;9.10;75.60
30047;DHT22;16878;52.542;13.426;2023-03-18T01:30:55;9.10;75.30
30047;DHT22;16878;52.542;13.426;2023-03-18T01:33:23;9.10;75.40
30047;DHT22;16878;52.542;13.426;2023-03-18T01:35:54;9.10;75.40
30047;DHT22;16878;52.542;13.426;2023-03-18T01:38:20;9.10;75.40
30047;DHT22;16878;52.542;13.426;2023-03-18T01:40:46;9.10;75.30
30047;DHT22;16878;52.542;13.426;2023-03-18T01:43:22;9.10;75.10
30047;DHT22;16878;52.542;13.426;2023-03-18T01:45:56;9.10;75.70
30047;DHT22;16878;52.542;13.426;2023-03-18T01:48:26;9.10;75.30
30047;DHT22;16878;52.542;13.426;2023-03-18T01:50:59;9.10;75.10
30047;DHT22;16878;52.542;13.426;2023-03-18T01:53:28;9.10;75.20
30047;DHT22;16878;52.542;13.426;2023-03-18T01:55:55;9.10;75.00
30047;DHT22;16878;52.542;13.426;2023-03-18T01:58:32;9.10;74.90
30047;DHT22;16878;52.542;13.426;2023-03-18T02:01:07;9.10;74.70
30047;DHT22;16878;52.542;13.426;2023-03-18T02:03:34;9.20;74.80
30047;DHT22;16878;52.542;13.426;2023-03-18T02:06:01;9.10;75.00
30047;DHT22;16878;52.542;13.426;2023-03-18T02:08:27;9.10;74.90
30047;DHT22;16878;52.542;13.426;2023-03-18T02:10:53;9.10;74.80
30047;DHT22;16878;52.542;13.426;2023-03-18T02:13:20;9.10;74.70
30047;DHT22;16878;52.542;13.426;2023-03-18T02:15:56;9.10;74.50
30047;DHT22;16878;52.542;13.426;2023-03-18T02:18:33;9.10;75.10
30047;DHT22;16878;52.542;13.426;2023-03-18T02:24:54;9.10;74.40
30047;DHT22;16878;52.542;13.426;2023-03-18T02:29:45;9.10;74.40
30047;DHT22;16878;52.542;13.426;2023-03-18T02:32:13;9.10;74.20
30047;DHT22;16878;52.542;13.426;2023-03-18T02:34:41;9.10;74.10
30047;DHT22;16878;52.542;13.426;2023-03-18T02:37:07;9.10;74.10
30047;DHT22;16878;52.542;13.426;2023-03-18T02:39:33;9.10;74.60
30047;DHT22;16878;52.542;13.426;2023-03-18T02:42:00;9.10;74.30
30047;DHT22;16878;52.542;13.426;2023-03-18T02:44:26;9.10;74.30
30047;DHT22;16878;52.542;13.426;2023-03-18T02:47:01;9.10;74.30
30047;DHT22;16878;52.542;13.426;2023-03-18T02:49:29;9.10;74.40
30047;DHT22;16878;52.542;13.426;2023-03-18T02:51:55;9.10;74.60
30047;DHT22;16878;52.542;13.426;2023-03-18T02:54:26;9.00;74.50
30047;DHT22;16878;52.542;13.426;2023-03-18T02:56:53;9.00;74.30
30047;DHT22;16878;52.542;13.426;2023-03-18T02:59:19;9.00;74.20
30047;DHT22;16878;52.542;13.426;2023-03-18T03:01:47;9.00;73.90
30047;DHT22;16878;52.542;13.426;2023-03-18T03:04:15;9.00;74.10
30047;DHT22;16878;52.542;13.426;2023-03-18T03:06:42;9.00;74.00
30047;DHT22;16878;52.542;13.426;2023-03-18T03:09:11;9.10;74.00
30047;DHT22;16878;52.542;13.426;2023-03-18T03:11:39;9.00;74.40
30047;DHT22;16878;52.542;13.426;2023-03-18T03:14:05;9.00;74.30
30047;DHT22;16878;52.542;13.426;2023-03-18T03:16:31;9.00;74.40
30047;DHT22;16878;52.542;13.426;2023-03-18T03:18:57;9.00;74.50
30047;DHT22;16878;52.542;13.426;2023-03-18T03:21:23;8.90;74.40
30047;DHT22;16878;52.542;13.426;2023-03-18T03:23:49;8.90;74.70
30047;DHT22;16878;52.542;13.426;2023-03-18T03:26:16;8.80;74.90
30047;DHT22;16878;52.542;13.426;2023-03-18T03:28:42;8.90;74.60
30047;DHT22;16878;52.542;13.426;2023-03-18T03:31:08;8.90;74.80
30047;DHT22;16878;52.542;13.426;2023-03-18T03:33:37;8.90;75.40
30047;DHT22;16878;52.542;13.426;2023-03-18T03:36:15;8.80;74.70
30047;DHT22;16878;52.542;13.426;2023-03-18T03:38:41;8.90;74.60
30047;DHT22;16878;52.542;13.426;2023-03-18T03:41:08;9.00;74.60
30047;DHT22;16878;52.542;13.426;2023-03-18T03:43:36;8.90;74.70
30047;DHT22;16878;52.542;13.426;2023-03-18T03:46:02;8.90;74.70
30047;DHT22;16878;52.542;13.426;2023-03-18T03:48:28;8.90;74.60
30047;DHT22;16878;52.542;13.426;2023-03-18T03:50:54;8.90;74.70
30047;DHT22;16878;52.542;13.426;2023-03-18T03:53:21;8.90;74.70
30047;DHT22;16878;52.542;13.426;2023-03-18T03:55:47;8.90;74.80
30047;DHT22;16878;52.542;13.426;2023-03-18T03:58:13;8.90;74.70
30047;DHT22;16878;52.542;13.426;2023-03-18T04:00:39;8.90;74.70
30047;DHT22;16878;52.542;13.426;2023-03-18T04:03:04;8.80;75.00
30047;DHT22;16878;52.542;13.426;2023-03-18T04:05:30;8.80;74.80
30047;DHT22;16878;52.542;13.426;2023-03-18T04:07:56;8.90;74.70
30047;DHT22;16878;52.542;13.426;2023-03-18T04:10:25;8.90;74.80
30047;DHT22;16878;52.542;13.426;2023-03-18T04:12:52;8.90;74.90
30047;DHT22;16878;52.542;13.426;2023-03-18T04:15:19;8.90;74.90
30047;DHT22;16878;52.542;13.426;2023-03-18T04:17:49;8.90;75.10
30047;DHT22;16878;52.542;13.426;2023-03-18T04:20:15;8.80;74.90
30047;DHT22;16878;52.542;13.426;2023-03-18T04:22:42;8.80;75.20
30047;DHT22;16878;52.542;13.426;2023-03-18T04:25:09;8.80;75.30
30047;DHT22;16878;52.542;13.426;2023-03-18T04:27:36;8.80;75.20
30047;DHT22;16878;52.542;13.426;2023-03-18T04:30:06;8.80;75.40
30047;DHT22;16878;52.542;13.426;2023-03-18T04:32:32;8.80;75.60
30047;DHT22;16878;52.542;13.426;2023-03-18T04:34:58;8.80;75.70
30047;DHT22;16878;52.542;13.426;2023-03-18T04:37:24;8.80;75.80
30047;DHT22;16878;52.542;13.426;2023-03-18T04:39:50;8.80;76.10
30047;DHT22;16878;52.542;13.426;2023-03-18T04:42:16;8.70;76.10
30047;DHT22;16878;52.542;13.426;2023-03-18T04:44:42;8.70;76.20
30047;DHT22;16878;52.542;13.426;2023-03-18T04:47:08;8.70;76.40
30047;DHT22;16878;52.542;13.426;2023-03-18T04:49:34;8.70;76.80
30047;DHT22;16878;52.542;13.426;2023-03-18T04:52:02;8.70;76.50
30047;DHT22;16878;52.542;13.426;2023-03-18T04:54:28;8.70;76.40
30047;DHT22;16878;52.542;13.426;2023-03-18T04:56:54;8.70;76.60
30047;DHT22;16878;52.542;13.426;2023-03-18T04:59:19;8.60;76.80
30047;DHT22;16878;52.542;13.426;2023-03-18T05:01:45;8.60;76.80
30047;DHT22;16878;52.542;13.426;2023-03-18T05:04:11;8.60;77.20
30047;DHT22;16878;52.542;13.426;2023-03-18T05:06:37;8.60;77.40
30047;DHT22;16878;52.542;13.426;2023-03-18T05:09:03;8.60;77.20
30047;DHT22;16878;52.542;13.426;2023-03-18T05:11:30;8.50;77.50
30047;DHT22;16878;52.542;13.426;2023-03-18T05:13:55;8.50;77.60
30047;DHT22;16878;52.542;13.426;2023-03-18T05:16:22;8.50;77.90
30047;DHT22;16878;52.542;13.426;2023-03-18T05:18:48;8.40;78.10
30047;DHT22;16878;52.542;13.426;2023-03-18T05:21:13;8.40;78.20
30047;DHT22;16878;52.542;13.426;2023-03-18T05:23:40;8.40;78.40
30047;DHT22;16878;52.542;13.426;2023-03-18T05:26:06;8.40;78.70
30047;DHT22;16878;52.542;13.426;2023-03-18T05:28:32;8.40;79.00
30047;DHT22;16878;52.542;13.426;2023-03-18T05:31:01;8.40;79.50
30047;DHT22;16878;52.542;13.426;2023-03-18T05:33:26;8.30;79.30
30047;DHT22;16878;52.542;13.426;2023-03-18T05:35:52;8.40;79.70
30047;DHT22;16878;52.542;13.426;2023-03-18T05:38:18;8.40;79.30
30047;DHT22;16878;52.542;13.426;2023-03-18T05:40:44;8.40;79.90
30047;DHT22;16878;52.542;13.426;2023-03-18T05:43:10;8.40;79.70
30047;DHT22;16878;52.542;13.426;2023-03-18T05:45:36;8.40;79.60
30047;DHT22;16878;52.542;13.426;2023-03-18T05:48:02;8.40;79.30
30047;DHT22;16878;52.542;13.426;2023-03-18T05:50:33;8.50;79.30
30047;DHT22;16878;52.542;13.426;2023-03-18T05:53:00;8.50;79.20
30047;DHT22;16878;52.542;13.426;2023-03-18T05:55:27;8.50;79.10
30047;DHT22;16878;52.542;13.426;2023-03-18T05:57:55;8.60;79.20
30047;DHT22;16878;52.542;13.426;2023-03-18T06:00:21;8.60;79.10
30047;DHT22;16878;52.542;13.426;2023-03-18T06:02:47;8.60;78.80
30047;DHT22;16878;52.542;13.426;2023-03-18T06:05:13;8.70;79.10
30047;DHT22;16878;52.542;13.426;2023-03-18T06:07:39;8.70;78.50
30047;DHT22;16878;52.542;13.426;2023-03-18T06:10:06;8.80;78.30
30047;DHT22;16878;52.542;13.426;2023-03-18T06:12:32;8.80;78.30
30047;DHT22;16878;52.542;13.426;2023-03-18T06:14:58;8.80;78.30
30047;DHT22;16878;52.542;13.426;2023-03-18T06:17:24;8.80;78.40
30047;DHT22;16878;52.542;13.426;2023-03-18T06:19:49;8.80;78.10
30047;DHT22;16878;52.542;13.426;2023-03-18T06:22:16;8.90;78.40
30047;DHT22;16878;52.542;13.426;2023-03-18T06:24:42;8.90;78.20
30047;DHT22;16878;52.542;13.426;2023-03-18T06:27:08;8.90;77.90
30047;DHT22;16878;52.542;13.426;2023-03-18T06:29:34;9.00;78.20
30047;DHT22;16878;52.542;13.426;2023-03-18T06:32:01;9.00;78.00
30047;DHT22;16878;52.542;13.426;2023-03-18T06:34:27;9.00;77.90
30047;DHT22;16878;52.542;13.426;2023-03-18T06:36:53;9.00;78.40
30047;DHT22;16878;52.542;13.426;2023-03-18T06:39:19;9.00;78.40
30047;DHT22;16878;52.542;13.426;2023-03-18T06:41:47;9.00;78.50
30047;DHT22;16878;52.542;13.426;2023-03-18T06:44:13;8.90;78.50
30047;DHT22;16878;52.542;13.426;2023-03-18T06:46:39;8.90;78.90
30047;DHT22;16878;52.542;13.426;2023-03-18T06:49:05;9.00;79.00
30047;DHT22;16878;52.542;13.426;2023-03-18T06:51:31;9.00;78.60
30047;DHT22;16878;52.542;13.426;2023-03-18T06:53:59;9.10;78.20
30047;DHT22;16878;52.542;13.426;2023-03-18T06:56:25;9.20;78.30
30047;DHT22;16878;52.542;13.426;2023-03-18T06:58:51;9.20;78.40
30047;DHT22;16878;52.542;13.426;2023-03-18T07:01:17;9.20;78.50
30047;DHT22;16878;52.542;13.426;2023-03-18T07:03:43;9.20;78.40
30047;DHT22;16878;52.542;13.426;2023-03-18T07:06:10;9.30;78.60
30047;DHT22;16878;52.542;13.426;2023-03-18T07:08:36;9.30;78.50
30047;DHT22;16878;52.542;13.426;2023-03-18T07:11:02;9.30;78.50
30047;DHT22;16878;52.542;13.426;2023-03-18T07:13:28;9.50;83.20
30047;DHT22;16878;52.542;13.426;2023-03-18T07:15:54;9.60;81.90
30047;DHT22;16878;52.542;13.426;2023-03-18T07:18:23;9.60;78.70
30047;DHT22;16878;52.542;13.426;2023-03-18T07:20:49;9.60;77.70
30047;DHT22;16878;52.542;13.426;2023-03-18T07:23:14;9.70;77.50
30047;DHT22;16878;52.542;13.426;2023-03-18T07:25:40;9.80;77.40
30047;DHT22;16878;52.542;13.426;2023-03-18T07:28:09;9.90;76.80
30047;DHT22;16878;52.542;13.426;2023-03-18T07:30:36;10.10;76.90
30047;DHT22;16878;52.542;13.426;2023-03-18T07:33:03;10.20;76.40
30047;DHT22;16878;52.542;13.426;2023-03-18T07:35:29;10.30;75.90
30047;DHT22;16878;52.542;13.426;2023-03-18T07:37:55;10.30;75.80
30047;DHT22;16878;52.542;13.426;2023-03-18T07:40:21;10.30;75.90
30047;DHT22;16878;52.542;13.426;2023-03-18T07:42:47;10.30;76.20
30047;DHT22;16878;52.542;13.426;2023-03-18T07:45:16;10.30;76.30
30047;DHT22;16878;52.542;13.426;2023-03-18T07:47:41;10.30;76.20
30047;DHT22;16878;52.542;13.426;2023-03-18T07:50:08;10.40;76.50
30047;DHT22;16878;52.542;13.426;2023-03-18T07:52:38;10.50;76.30
30047;DHT22;16878;52.542;13.426;2023-03-18T07:55:04;10.70;76.30
30047;DHT22;16878;52.542;13.426;2023-03-18T07:57:29;10.90;75.90
30047;DHT22;16878;52.542;13.426;2023-03-18T07:59:55;11.00;75.40
30047;DHT22;16878;52.542;13.426;2023-03-18T08:02:21;11.10;75.00
30047;DHT22;16878;52.542;13.426;2023-03-18T08:04:48;11.20;74.80
30047;DHT22;16878;52.542;13.426;2023-03-18T08:07:14;11.20;75.00
30047;DHT22;16878;52.542;13.426;2023-03-18T08:09:40;11.30;74.90
30047;DHT22;16878;52.542;13.426;2023-03-18T08:12:06;11.30;74.90
30047;DHT22;16878;52.542;13.426;2023-03-18T08:14:32;11.40;75.80
30047;DHT22;16878;52.542;13.426;2023-03-18T08:16:58;11.50;75.50
30047;DHT22;16878;52.542;13.426;2023-03-18T08:19:27;11.60;75.30
30047;DHT22;16878;52.542;13.426;2023-03-18T08:21:52;11.70;75.00
30047;DHT22;16878;52.542;13.426;2023-03-18T08:24:18;11.80;74.60
30047;DHT22;16878;52.542;13.426;2023-03-18T08:26:44;11.90;74.30
30047;DHT22;16878;52.542;13.426;2023-03-18T08:29:10;12.00;74.30
30047;DHT22;16878;52.542;13.426;2023-03-18T08:31:36;12.10;74.40
30047;DHT22;16878;52.542;13.426;2023-03-18T08:34:02;12.10;74.40
30047;DHT22;16878;52.542;13.426;2023-03-18T08:36:27;12.10;74.50
30047;DHT22;16878;52.542;13.426;2023-03-18T08:38:53;12.00;74.60
30047;DHT22;16878;52.542;13.426;2023-03-18T08:41:19;11.90;75.20
30047;DHT22;16878;52.542;13.426;2023-03-18T08:43:46;11.90;75.40
30047;DHT22;16878;52.542;13.426;2023-03-18T08:46:11;12.00;75.60
30047;DHT22;16878;52.542;13.426;2023-03-18T08:48:37;12.20;75.00
30047;DHT22;16878;52.542;13.426;2023-03-18T08:51:04;12.40;74.80
30047;DHT22;16878;52.542;13.426;2023-03-18T08:53:33;12.40;74.50
30047;DHT22;16878;52.542;13.426;2023-03-18T08:55:58;12.50;74.30
30047;DHT22;16878;52.542;13.426;2023-03-18T08:58:26;12.70;74.20
30047;DHT22;16878;52.542;13.426;2023-03-18T09:00:54;13.00;74.10
30047;DHT22;16878;52.542;13.426;2023-03-18T09:03:19;13.20;73.40
30047;DHT22;16878;52.542;13.426;2023-03-18T09:05:52;13.10;72.90
30047;DHT22;16878;52.542;13.426;2023-03-18T09:08:20;13.10;73.20
30047;DHT22;16878;52.542;13.426;2023-03-18T09:10:47;13.20;73.50
30047;DHT22;16878;52.542;13.426;2023-03-18T09:13:15;13.30;73.70
30047;DHT22;16878;52.542;13.426;2023-03-18T09:15:40;13.40;73.30
30047;DHT22;16878;52.542;13.426;2023-03-18T09:18:06;13.60;73.40
30047;DHT22;16878;52.542;13.426;2023-03-18T09:20:33;13.60;72.70
30047;DHT22;16878;52.542;13.426;2023-03-18T09:22:59;13.70;72.80
30047;DHT22;16878;52.542;13.426;2023-03-18T09:25:25;13.60;72.90
30047;DHT22;16878;52.542;13.426;2023-03-18T09:27:52;13.50;73.10
30047;DHT22;16878;52.542;13.426;2023-03-18T09:30:18;13.40;73.60
30047;DHT22;16878;52.542;13.426;2023-03-18T09:32:44;13.40;74.00
30047;DHT22;16878;52.542;13.426;2023-03-18T09:35:11;13.40;74.40
30047;DHT22;16878;52.542;13.426;2023-03-18T09:37:37;13.40;74.50
30047;DHT22;16878;52.542;13.426;2023-03-18T09:40:04;13.40;75.20
30047;DHT22;16878;52.542;13.426;2023-03-18T09:54:07;13.60;75.70
30047;DHT22;16878;52.542;13.426;2023-03-18T09:56:36;13.60;75.70
30047;DHT22;16878;52.542;13.426;2023-03-18T09:59:05;13.70;75.60
30047;DHT22;16878;52.542;13.426;2023-03-18T10:01:37;13.80;75.60
30047;DHT22;16878;52.542;13.426;2023-03-18T10:04:23;13.90;75.70
30047;DHT22;16878;52.542;13.426;2023-03-18T10:06:53;13.90;75.90
30047;DHT22;16878;52.542;13.426;2023-03-18T10:09:28;13.90;75.80
30047;DHT22;16878;52.542;13.426;2023-03-18T10:12:17;14.00;75.50
30047;DHT22;16878;52.542;13.426;2023-03-18T10:14:56;14.10;75.50
30047;DHT22;16878;52.542;13.426;2023-03-18T10:17:29;14.30;75.70
30047;DHT22;16878;52.542;13.426;2023-03-18T10:19:58;14.40;75.20
30047;DHT22;16878;52.542;13.426;2023-03-18T10:28:22;14.40;74.90
30047;DHT22;16878;52.542;13.426;2023-03-18T10:36:25;14.70;75.50
30047;DHT22;16878;52.542;13.426;2023-03-18T10:38:54;14.80;74.80
30047;DHT22;16878;52.542;13.426;2023-03-18T10:43:49;15.00;75.10
30047;DHT22;16878;52.542;13.426;2023-03-18T10:46:19;15.00;75.00
30047;DHT22;16878;52.542;13.426;2023-03-18T10:49:01;15.10;75.40
30047;DHT22;16878;52.542;13.426;2023-03-18T10:51:43;15.10;75.20
30047;DHT22;16878;52.542;13.426;2023-03-18T10:54:26;15.20;75.60
30047;DHT22;16878;52.542;13.426;2023-03-18T10:56:54;15.10;74.90
30047;DHT22;16878;52.542;13.426;2023-03-18T10:59:22;15.10;75.20
30047;DHT22;16878;52.542;13.426;2023-03-18T11:02:16;15.10;75.50
30047;DHT22;16878;52.542;13.426;2023-03-18T11:04:57;15.20;75.90
30047;DHT22;16878;52.542;13.426;2023-03-18T11:07:27;15.20;76.10
30047;DHT22;16878;52.542;13.426;2023-03-18T11:09:53;15.30;76.20
30047;DHT22;16878;52.542;13.426;2023-03-18T11:12:27;15.30;77.30
30047;DHT22;16878;52.542;13.426;2023-03-18T11:14:53;15.20;77.00
30047;DHT22;16878;52.542;13.426;2023-03-18T11:17:32;15.20;77.50
30047;DHT22;16878;52.542;13.426;2023-03-18T11:22:50;15.40;78.00
30047;DHT22;16878;52.542;13.426;2023-03-18T11:25:18;15.60;77.00
30047;DHT22;16878;52.542;13.426;2023-03-18T11:27:46;15.80;76.90
30047;DHT22;16878;52.542;13.426;2023-03-18T11:30:25;15.90;76.90
30047;DHT22;16878;52.542;13.426;2023-03-18T11:35:52;16.30;75.90
30047;DHT22;16878;52.542;13.426;2023-03-18T11:38:19;16.40;75.70
30047;DHT22;16878;52.542;13.426;2023-03-18T11:40:45;16.40;75.80
30047;DHT22;16878;52.542;13.426;2023-03-18T11:43:17;16.30;75.80
30047;DHT22;16878;52.542;13.426;2023-03-18T11:46:00;16.40;76.00
30047;DHT22;16878;52.542;13.426;2023-03-18T11:48:38;16.20;76.40
30047;DHT22;16878;52.542;13.426;2023-03-18T11:59:02;16.00;79.40
30047;DHT22;16878;52.542;13.426;2023-03-18T12:07:24;16.30;79.40
30047;DHT22;16878;52.542;13.426;2023-03-18T12:12:47;16.30;80.00
30047;DHT22;16878;52.542;13.426;2023-03-18T12:32:13;16.10;82.60
30047;DHT22;16878;52.542;13.426;2023-03-18T12:35:02;16.20;83.80
30047;DHT22;16878;52.542;13.426;2023-03-18T12:45:39;16.30;84.40
30047;DHT22;16878;52.542;13.426;2023-03-18T12:48:21;16.40;85.30
30047;DHT22;16878;52.542;13.426;2023-03-18T12:51:05;16.40;85.60
30047;DHT22;16878;52.542;13.426;2023-03-18T12:53:37;16.40;85.60
30047;DHT22;16878;52.542;13.426;2023-03-18T12:56:16;16.50;84.70
30047;DHT22;16878;52.542;13.426;2023-03-18T12:58:47;16.50;84.70
30047;DHT22;16878;52.542;13.426;2023-03-18T13:04:06;16.60;85.60
30047;DHT22;16878;52.542;13.426;2023-03-18T13:06:46;16.50;86.00
30047;DHT22;16878;52.542;13.426;2023-03-18T13:09:57;16.50;86.40
30047;DHT22;16878;52.542;13.426;2023-03-18T13:12:55;16.60;86.50
30047;DHT22;16878;52.542;13.426;2023-03-18T13:15:43;16.80;86.90
30047;DHT22;16878;52.542;13.426;2023-03-18T13:18:24;16.80;86.50
30047;DHT22;16878;52.542;13.426;2023-03-18T13:20:54;16.80;86.30
30047;DHT22;16878;52.542;13.426;2023-03-18T13:29:17;16.70;87.40
30047;DHT22;16878;52.542;13.426;2023-03-18T13:34:41;16.70;88.20
30047;DHT22;16878;52.542;13.426;2023-03-18T13:37:29;16.60;88.70
30047;DHT22;16878;52.542;13.426;2023-03-18T13:40:16;16.70;89.60
30047;DHT22;16878;52.542;13.426;2023-03-18T13:42:44;16.70;89.80
30047;DHT22;16878;52.542;13.426;2023-03-18T13:48:05;16.70;90.00
30047;DHT22;16878;52.542;13.426;2023-03-18T13:50:38;16.60;90.10
30047;DHT22;16878;52.542;13.426;2023-03-18T13:53:15;16.60;90.50
30047;DHT22;16878;52.542;13.426;2023-03-18T13:55:52;16.60;90.30
30047;DHT22;16878;52.542;13.426;2023-03-18T14:03:30;16.60;90.40
30047;DHT22;16878;52.542;13.426;2023-03-18T14:14:02;16.60;90.50
30047;DHT22;16878;52.542;13.426;2023-03-18T14:19:18;16.50;91.00
30047;DHT22;16878;52.542;13.426;2023-03-18T14:21:53;16.40;91.00
30047;DHT22;16878;52.542;13.426;2023-03-18T14:24:22;16.40;91.00
30047;DHT22;16878;52.542;13.426;2023-03-18T14:29:36;16.40;91.30
30047;DHT22;16878;52.542;13.426;2023-03-18T14:32:04;16.40;91.30
30047;DHT22;16878;52.542;13.426;2023-03-18T14:34:56;16.40;91.30
30047;DHT22;16878;52.542;13.426;2023-03-18T14:37:29;16.40;91.30
30047;DHT22;16878;52.542;13.426;2023-03-18T14:40:00;16.40;91.40
30047;DHT22;16878;52.542;13.426;2023-03-18T14:42:44;16.30;91.60
30047;DHT22;16878;52.542;13.426;2023-03-18T14:45:29;16.30;91.60
30047;DHT22;16878;52.542;13.426;2023-03-18T14:47:57;16.30;91.90
30047;DHT22;16878;52.542;13.426;2023-03-18T14:50:34;16.30;92.00
30047;DHT22;16878;52.542;13.426;2023-03-18T14:53:23;16.30;92.00
30047;DHT22;16878;52.542;13.426;2023-03-18T14:55:50;16.30;92.20
30047;DHT22;16878;52.542;13.426;2023-03-18T14:58:20;16.20;92.10
30047;DHT22;16878;52.542;13.426;2023-03-18T15:00:49;16.00;92.20
30047;DHT22;16878;52.542;13.426;2023-03-18T15:03:24;15.90;92.60
30047;DHT22;16878;52.542;13.426;2023-03-18T15:05:55;15.80;93.00
30047;DHT22;16878;52.542;13.426;2023-03-18T15:08:26;15.80;93.20
30047;DHT22;16878;52.542;13.426;2023-03-18T15:10:53;15.90;93.10
30047;DHT22;16878;52.542;13.426;2023-03-18T15:13:21;15.90;93.20
30047;DHT22;16878;52.542;13.426;2023-03-18T15:15:48;16.00;93.50
30047;DHT22;16878;52.542;13.426;2023-03-18T15:18:22;16.10;93.50
30047;DHT22;16878;52.542;13.426;2023-03-18T15:21:22;16.00;93.50
30047;DHT22;16878;52.542;13.426;2023-03-18T15:23:54;16.00;93.90
30047;DHT22;16878;52.542;13.426;2023-03-18T15:26:28;16.10;93.90
30047;DHT22;16878;52.542;13.426;2023-03-18T15:28:59;16.00;94.20
30047;DHT22;16878;52.542;13.426;2023-03-18T15:31:31;15.90;94.60
30047;DHT22;16878;52.542;13.426;2023-03-18T15:34:05;15.80;94.70
30047;DHT22;16878;52.542;13.426;2023-03-18T15:36:39;15.70;95.10
30047;DHT22;16878;52.542;13.426;2023-03-18T15:39:38;15.60;95.60
30047;DHT22;16878;52.542;13.426;2023-03-18T15:42:16;15.50;96.30
30047;DHT22;16878;52.542;13.426;2023-03-18T15:44:42;15.50;96.40
30047;DHT22;16878;52.542;13.426;2023-03-18T15:47:17;15.50;96.40
30047;DHT22;16878;52.542;13.426;2023-03-18T15:50:13;15.40;96.70
30047;DHT22;16878;52.542;13.426;2023-03-18T15:52:41;15.40;97.00
30047;DHT22;16878;52.542;13.426;2023-03-18T15:57:48;15.60;97.10
30047;DHT22;16878;52.542;13.426;2023-03-18T16:00:17;15.60;96.70
30047;DHT22;16878;52.542;13.426;2023-03-18T16:02:43;15.60;96.80
30047;DHT22;16878;52.542;13.426;2023-03-18T16:05:20;15.60;97.00
30047;DHT22;16878;52.542;13.426;2023-03-18T16:07:47;15.60;97.00
30047;DHT22;16878;52.542;13.426;2023-03-18T16:10:13;15.60;97.10
30047;DHT22;16878;52.542;13.426;2023-03-18T16:12:51;15.70;97.20
30047;DHT22;16878;52.542;13.426;2023-03-18T16:15:22;15.60;97.20
30047;DHT22;16878;52.542;13.426;2023-03-18T16:17:52;15.60;97.30
30047;DHT22;16878;52.542;13.426;2023-03-18T16:20:23;15.60;97.20
30047;DHT22;16878;52.542;13.426;2023-03-18T16:22:50;15.60;97.20
30047;DHT22;16878;52.542;13.426;2023-03-18T16:25:17;15.70;97.30
30047;DHT22;16878;52.542;13.426;2023-03-18T16:27:47;15.80;97.40
30047;DHT22;16878;52.542;13.426;2023-03-18T16:32:43;15.70;97.60
30047;DHT22;16878;52.542;13.426;2023-03-18T16:35:17;15.70;97.90
30047;DHT22;16878;52.542;13.426;2023-03-18T16:37:44;15.70;97.50
30047;DHT22;16878;52.542;13.426;2023-03-18T16:40:20;15.80;97.60
30047;DHT22;16878;52.542;13.426;2023-03-18T16:42:47;15.90;97.30
30047;DHT22;16878;52.542;13.426;2023-03-18T16:45:14;15.80;97.50
30047;DHT22;16878;52.542;13.426;2023-03-18T16:47:43;15.60;97.60
30047;DHT22;16878;52.542;13.426;2023-03-18T16:50:18;15.60;97.80
30047;DHT22;16878;52.542;13.426;2023-03-18T16:52:45;15.50;98.10
30047;DHT22;16878;52.542;13.426;2023-03-18T16:55:12;15.50;98.40
30047;DHT22;16878;52.542;13.426;2023-03-18T16:57:45;15.40;98.40
30047;DHT22;16878;52.542;13.426;2023-03-18T17:00:32;15.30;98.60
30047;DHT22;16878;52.542;13.426;2023-03-18T17:02:58;15.20;98.80
30047;DHT22;16878;52.542;13.426;2023-03-18T17:05:25;15.20;99.30
30047;DHT22;16878;52.542;13.426;2023-03-18T17:07:51;15.00;99.60
30047;DHT22;16878;52.542;13.426;2023-03-18T17:10:19;14.90;99.90
30047;DHT22;16878;52.542;13.426;2023-03-18T17:12:57;14.80;99.90
30047;DHT22;16878;52.542;13.426;2023-03-18T17:15:30;14.70;99.90
30047;DHT22;16878;52.542;13.426;2023-03-18T17:17:57;14.60;99.90
30047;DHT22;16878;52.542;13.426;2023-03-18T17:20:29;14.60;99.90
30047;DHT22;16878;52.542;13.426;2023-03-18T17:22:57;14.50;99.90
30047;DHT22;16878;52.542;13.426;2023-03-18T17:25:26;14.60;99.90
30047;DHT22;16878;52.542;13.426;2023-03-18T17:28:02;14.60;99.90
30047;DHT22;16878;52.542;13.426;2023-03-18T17:30:36;14.60;99.90
30047;DHT22;16878;52.542;13.426;2023-03-18T17:33:03;14.50;99.90